Raymore, Missouri
Current Conditions -  °F | °C
As of 1:19 AM on Saturday 22 Nov 2014 (Local Time) from KLXT Reporting Station
Haze Haze  
Wind Chill: 43°   Ceiling: 300
Heat Index: 48°   Visibility: 1.7mi
Dew Point: 47°   Wind: 13mph
Humidity: 96%   Direction: 180°S
Pressure: 30.04"   Gusts: NA
Location:  38.8°N, 94.46°W
Report Text: KLXT 220719Z AUTO 18011KT 1 3/4SM BR OVC003 09/08 A3004 RMK AO2 T00890083
Loading
Personal Weather Stations






























Interactive Weather Map New forecast layout! Learn more

10-Day Weather Forecast

Advertisements
Track Severe Weather on mobile